ARG1385 SUMU-SABE
Flight info
| Callsign | ARG1385 |
|---|---|
| Flight time | 0h 35m |
| Altitude | 30000 |
| Route | UGIMI UGIMI8Q |
| Aircraft | E190/M-SDE3GILORVW/S |
Departure
| Time | 2026-04-20 23:50 |
|---|---|
| Airport | Carrasco General Cesáreo L. Berisso International Airport (SUMU) |
Arrival
| Time | 2026-04-21 00:25 |
|---|---|
| Airport | Aeroparque Jorge Newbery (SABE) |
| Time | Latitude | Longitude | Altitude | Speed | Heading |
|---|---|---|---|---|---|
| 2026-04-20 23:25 | -34.83613 | -56.01808 | 81 ft | 0 kts | 144° |
| 2026-04-20 23:42 | -34.83597 | -56.01822 | 86 ft | 4 kts | 149° |
| 2026-04-20 23:42 | -34.83573 | -56.01836 | 86 ft | 4 kts | 163° |
| 2026-04-20 23:42 | -34.83547 | -56.01841 | 85 ft | 4 kts | 200° |
| 2026-04-20 23:43 | -34.83534 | -56.01831 | 85 ft | 1 kts | 233° |
| 2026-04-20 23:43 | -34.83533 | -56.01829 | 85 ft | 0 kts | 233° |
| 2026-04-20 23:45 | -34.83549 | -56.01854 | 86 ft | 11 kts | 232° |
| 2026-04-20 23:45 | -34.83606 | -56.01947 | 83 ft | 15 kts | 234° |
| 2026-04-20 23:45 | -34.83673 | -56.02057 | 83 ft | 17 kts | 233° |
| 2026-04-20 23:46 | -34.83747 | -56.02179 | 82 ft | 18 kts | 233° |
| 2026-04-20 23:46 | -34.83855 | -56.02242 | 82 ft | 18 kts | 185° |
| 2026-04-20 23:46 | -34.83944 | -56.02298 | 85 ft | 16 kts | 258° |
| 2026-04-20 23:46 | -34.83947 | -56.02440 | 81 ft | 18 kts | 270° |
| 2026-04-20 23:47 | -34.83947 | -56.02601 | 81 ft | 19 kts | 269° |
| 2026-04-20 23:47 | -34.83977 | -56.02756 | 81 ft | 15 kts | 239° |
| 2026-04-20 23:47 | -34.84011 | -56.02885 | 85 ft | 17 kts | 267° |
| 2026-04-20 23:47 | -34.84013 | -56.03042 | 81 ft | 20 kts | 262° |
| 2026-04-20 23:48 | -34.84067 | -56.03203 | 82 ft | 21 kts | 243° |
| 2026-04-20 23:48 | -34.84132 | -56.03353 | 83 ft | 20 kts | 241° |
| 2026-04-20 23:48 | -34.84198 | -56.03502 | 82 ft | 18 kts | 242° |
| 2026-04-20 23:48 | -34.84240 | -56.03614 | 83 ft | 14 kts | 262° |
| 2026-04-20 23:49 | -34.84202 | -56.03670 | 82 ft | 6 kts | 13° |
| 2026-04-20 23:49 | -34.84171 | -56.03630 | 82 ft | 14 kts | 52° |
| 2026-04-20 23:49 | -34.83999 | -56.03362 | 83 ft | 74 kts | 52° |
| 2026-04-20 23:49 | -34.83573 | -56.02632 | 85 ft | 135 kts | 58° |
| 2026-04-20 23:50 | -34.82973 | -56.01618 | 479 ft | 159 kts | 54° |
| 2026-04-20 23:50 | -34.82244 | -56.00521 | 1060 ft | 174 kts | 49° |
| 2026-04-20 23:50 | -34.81076 | -55.99882 | 1632 ft | 199 kts | 14° |
| 2026-04-20 23:50 | -34.79637 | -55.99948 | 2354 ft | 214 kts | 352° |
| 2026-04-20 23:51 | -34.78274 | -56.00665 | 3332 ft | 219 kts | 330° |
| 2026-04-20 23:51 | -34.77189 | -56.02007 | 3988 ft | 234 kts | 304° |
| 2026-04-20 23:51 | -34.76654 | -56.03895 | 4886 ft | 245 kts | 281° |
| 2026-04-20 23:51 | -34.76802 | -56.06089 | 5430 ft | 271 kts | 258° |
| 2026-04-20 23:52 | -34.77333 | -56.08321 | 6377 ft | 276 kts | 256° |
| 2026-04-20 23:52 | -34.77835 | -56.10581 | 7336 ft | 276 kts | 259° |
| 2026-04-20 23:52 | -34.78284 | -56.12854 | 8289 ft | 277 kts | 259° |
| 2026-04-20 23:52 | -34.78721 | -56.15145 | 9218 ft | 279 kts | 260° |
| 2026-04-20 23:53 | -34.79158 | -56.17453 | 10137 ft | 281 kts | 259° |
| 2026-04-20 23:53 | -34.79614 | -56.19842 | 10582 ft | 298 kts | 258° |
| 2026-04-20 23:53 | -34.80139 | -56.22343 | 11133 ft | 311 kts | 257° |
| 2026-04-20 23:53 | -34.80713 | -56.24939 | 11664 ft | 324 kts | 257° |
| 2026-04-20 23:54 | -34.81328 | -56.27627 | 12233 ft | 334 kts | 256° |
| 2026-04-20 23:54 | -34.81978 | -56.30373 | 12932 ft | 340 kts | 256° |
| 2026-04-20 23:54 | -34.82642 | -56.33149 | 13709 ft | 344 kts | 256° |
| 2026-04-20 23:54 | -34.83308 | -56.35959 | 14461 ft | 347 kts | 256° |
| 2026-04-20 23:55 | -34.83986 | -56.38794 | 15208 ft | 350 kts | 256° |
| 2026-04-20 23:55 | -34.84678 | -56.41642 | 15899 ft | 353 kts | 256° |
| 2026-04-20 23:55 | -34.85395 | -56.44516 | 16560 ft | 356 kts | 255° |
| 2026-04-20 23:55 | -34.86138 | -56.47405 | 17197 ft | 359 kts | 255° |
| 2026-04-20 23:56 | -34.86894 | -56.50276 | 17820 ft | 362 kts | 255° |
| 2026-04-20 23:56 | -34.87681 | -56.53203 | 18440 ft | 365 kts | 254° |
| 2026-04-20 23:56 | -34.88487 | -56.56146 | 19008 ft | 368 kts | 254° |
| 2026-04-20 23:56 | -34.89311 | -56.59104 | 19597 ft | 369 kts | 254° |
| 2026-04-20 23:57 | -34.90151 | -56.62074 | 20189 ft | 372 kts | 254° |
| 2026-04-20 23:57 | -34.91010 | -56.65056 | 20779 ft | 374 kts | 253° |
| 2026-04-20 23:57 | -34.91891 | -56.68059 | 21359 ft | 377 kts | 253° |
| 2026-04-20 23:57 | -34.92789 | -56.71071 | 21910 ft | 380 kts | 253° |
| 2026-04-20 23:58 | -34.93706 | -56.74097 | 22442 ft | 382 kts | 253° |
| 2026-04-20 23:58 | -34.94646 | -56.77143 | 22925 ft | 385 kts | 252° |
| 2026-04-20 23:58 | -34.95604 | -56.80200 | 23415 ft | 388 kts | 252° |
| 2026-04-20 23:58 | -34.96586 | -56.83277 | 23825 ft | 390 kts | 252° |
| 2026-04-20 23:59 | -34.97585 | -56.86355 | 24210 ft | 392 kts | 252° |
| 2026-04-20 23:59 | -34.98324 | -56.89530 | 24551 ft | 388 kts | 265° |
| 2026-04-20 23:59 | -34.98418 | -56.92813 | 24929 ft | 387 kts | 272° |
| 2026-04-20 23:59 | -34.98414 | -56.96101 | 25138 ft | 392 kts | 272° |
| 2026-04-21 00:00 | -34.98403 | -56.99439 | 25140 ft | 396 kts | 272° |
| 2026-04-21 00:00 | -34.98387 | -57.02812 | 25144 ft | 398 kts | 272° |
| 2026-04-21 00:00 | -34.98368 | -57.06150 | 25149 ft | 400 kts | 272° |
| 2026-04-21 00:00 | -34.98348 | -57.09546 | 25125 ft | 400 kts | 272° |
| 2026-04-21 00:01 | -34.98324 | -57.12945 | 25080 ft | 401 kts | 272° |
| 2026-04-21 00:01 | -34.98300 | -57.16341 | 25068 ft | 401 kts | 272° |
| 2026-04-21 00:01 | -34.98275 | -57.19734 | 25070 ft | 401 kts | 272° |
| 2026-04-21 00:01 | -34.98249 | -57.23130 | 25072 ft | 401 kts | 272° |
| 2026-04-21 00:02 | -34.98222 | -57.26534 | 25069 ft | 401 kts | 272° |
| 2026-04-21 00:02 | -34.98194 | -57.29937 | 25069 ft | 401 kts | 272° |
| 2026-04-21 00:02 | -34.98164 | -57.33334 | 25065 ft | 401 kts | 272° |
| 2026-04-21 00:02 | -34.98084 | -57.36728 | 25075 ft | 399 kts | 277° |
| 2026-04-21 00:03 | -34.97419 | -57.40002 | 25071 ft | 397 kts | 290° |
| 2026-04-21 00:03 | -34.96479 | -57.43170 | 25071 ft | 397 kts | 290° |
| 2026-04-21 00:03 | -34.95545 | -57.46344 | 25064 ft | 397 kts | 290° |
| 2026-04-21 00:03 | -34.94609 | -57.49513 | 25065 ft | 398 kts | 290° |
| 2026-04-21 00:04 | -34.93672 | -57.52684 | 25064 ft | 397 kts | 290° |
| 2026-04-21 00:04 | -34.92733 | -57.55854 | 25073 ft | 398 kts | 290° |
| 2026-04-21 00:04 | -34.91807 | -57.58984 | 25063 ft | 398 kts | 290° |
| 2026-04-21 00:04 | -34.90864 | -57.62151 | 25063 ft | 397 kts | 290° |
| 2026-04-21 00:05 | -34.89920 | -57.65321 | 25093 ft | 399 kts | 290° |
| 2026-04-21 00:05 | -34.88976 | -57.68492 | 25098 ft | 397 kts | 290° |
| 2026-04-21 00:05 | -34.88034 | -57.71651 | 25079 ft | 396 kts | 290° |
| 2026-04-21 00:05 | -34.87092 | -57.74806 | 25075 ft | 396 kts | 290° |
| 2026-04-21 00:06 | -34.86149 | -57.77963 | 25073 ft | 396 kts | 290° |
| 2026-04-21 00:06 | -34.85205 | -57.81113 | 25084 ft | 396 kts | 290° |
| 2026-04-21 00:06 | -34.84263 | -57.84258 | 25074 ft | 396 kts | 290° |
| 2026-04-21 00:06 | -34.83318 | -57.87409 | 25071 ft | 396 kts | 290° |
| 2026-04-21 00:07 | -34.82376 | -57.90549 | 24914 ft | 392 kts | 290° |
| 2026-04-21 00:07 | -34.81445 | -57.93634 | 24612 ft | 385 kts | 290° |
| 2026-04-21 00:07 | -34.80524 | -57.96686 | 24189 ft | 385 kts | 290° |
| 2026-04-21 00:07 | -34.79601 | -57.99738 | 23644 ft | 382 kts | 290° |
| 2026-04-21 00:08 | -34.78689 | -58.02755 | 23097 ft | 378 kts | 290° |
| 2026-04-21 00:08 | -34.77800 | -58.05703 | 22604 ft | 374 kts | 290° |
| 2026-04-21 00:08 | -34.76907 | -58.08666 | 22103 ft | 372 kts | 290° |
| 2026-04-21 00:08 | -34.76019 | -58.11609 | 21620 ft | 370 kts | 290° |
| 2026-04-21 00:09 | -34.75137 | -58.14536 | 21124 ft | 368 kts | 290° |
| 2026-04-21 00:09 | -34.74256 | -58.17458 | 20638 ft | 367 kts | 290° |
| 2026-04-21 00:09 | -34.73381 | -58.20362 | 20165 ft | 365 kts | 290° |
| 2026-04-21 00:09 | -34.72510 | -58.23254 | 19677 ft | 364 kts | 290° |
| 2026-04-21 00:10 | -34.71644 | -58.26133 | 19185 ft | 362 kts | 290° |
| 2026-04-21 00:10 | -34.70782 | -58.28996 | 18712 ft | 360 kts | 290° |
| 2026-04-21 00:10 | -34.69923 | -58.31851 | 18220 ft | 359 kts | 290° |
| 2026-04-21 00:10 | -34.69071 | -58.34684 | 17764 ft | 356 kts | 290° |
| 2026-04-21 00:11 | -34.68221 | -58.37507 | 17286 ft | 355 kts | 290° |
| 2026-04-21 00:11 | -34.67376 | -58.40317 | 16830 ft | 353 kts | 290° |
| 2026-04-21 00:11 | -34.66536 | -58.43109 | 16352 ft | 351 kts | 290° |
| 2026-04-21 00:11 | -34.65702 | -58.45882 | 15883 ft | 348 kts | 290° |
| 2026-04-21 00:12 | -34.64873 | -58.48641 | 15420 ft | 346 kts | 290° |
| 2026-04-21 00:12 | -34.64051 | -58.51375 | 14959 ft | 344 kts | 290° |
| 2026-04-21 00:12 | -34.63241 | -58.54072 | 14501 ft | 334 kts | 290° |
| 2026-04-21 00:12 | -34.62455 | -58.56688 | 14077 ft | 324 kts | 290° |
| 2026-04-21 00:13 | -34.61692 | -58.59227 | 13615 ft | 316 kts | 290° |
| 2026-04-21 00:13 | -34.60951 | -58.61693 | 13229 ft | 306 kts | 290° |
| 2026-04-21 00:13 | -34.60229 | -58.64094 | 12823 ft | 299 kts | 290° |
| 2026-04-21 00:13 | -34.59524 | -58.66440 | 12437 ft | 293 kts | 290° |
| 2026-04-21 00:14 | -34.58831 | -58.68747 | 12042 ft | 288 kts | 290° |
| 2026-04-21 00:14 | -34.58150 | -58.71016 | 11658 ft | 284 kts | 290° |
| 2026-04-21 00:14 | -34.57477 | -58.73254 | 11291 ft | 281 kts | 290° |
| 2026-04-21 00:14 | -34.56894 | -58.75506 | 10905 ft | 279 kts | 290° |
| 2026-04-21 00:15 | -34.55918 | -58.77484 | 10522 ft | 279 kts | 314° |
| 2026-04-21 00:15 | -34.54288 | -58.78735 | 10174 ft | 281 kts | 339° |
| 2026-04-21 00:15 | -34.52342 | -58.78979 | 9766 ft | 285 kts | 1° |
| 2026-04-21 00:15 | -34.50375 | -58.78691 | 9391 ft | 285 kts | 6° |
| 2026-04-21 00:16 | -34.48417 | -58.78374 | 8991 ft | 282 kts | 5° |
| 2026-04-21 00:16 | -34.46477 | -58.78076 | 8620 ft | 279 kts | 6° |
| 2026-04-21 00:16 | -34.44569 | -58.77786 | 8256 ft | 274 kts | 5° |
| 2026-04-21 00:16 | -34.42688 | -58.77504 | 7891 ft | 270 kts | 5° |
| 2026-04-21 00:17 | -34.40833 | -58.77229 | 7536 ft | 266 kts | 6° |
| 2026-04-21 00:17 | -34.38999 | -58.76960 | 7123 ft | 265 kts | 6° |
| 2026-04-21 00:17 | -34.37221 | -58.76523 | 6671 ft | 256 kts | 24° |
| 2026-04-21 00:17 | -34.35904 | -58.75187 | 6343 ft | 245 kts | 55° |
| 2026-04-21 00:18 | -34.35383 | -58.73283 | 6027 ft | 238 kts | 86° |
| 2026-04-21 00:18 | -34.35776 | -58.71385 | 5755 ft | 234 kts | 118° |
| 2026-04-21 00:18 | -34.36758 | -58.69875 | 5549 ft | 223 kts | 129° |
| 2026-04-21 00:18 | -34.37788 | -58.68525 | 5207 ft | 217 kts | 129° |
| 2026-04-21 00:19 | -34.38792 | -58.67186 | 4894 ft | 212 kts | 128° |
| 2026-04-21 00:19 | -34.39766 | -58.65865 | 4632 ft | 208 kts | 127° |
| 2026-04-21 00:19 | -34.40718 | -58.64572 | 4326 ft | 205 kts | 128° |
| 2026-04-21 00:19 | -34.41656 | -58.63292 | 4039 ft | 201 kts | 127° |
| 2026-04-21 00:20 | -34.42532 | -58.62096 | 3795 ft | 195 kts | 126° |
| 2026-04-21 00:20 | -34.43414 | -58.60887 | 3543 ft | 188 kts | 125° |
| 2026-04-21 00:20 | -34.44258 | -58.59694 | 3328 ft | 185 kts | 125° |
| 2026-04-21 00:20 | -34.45090 | -58.58521 | 3131 ft | 182 kts | 126° |
| 2026-04-21 00:21 | -34.45920 | -58.57376 | 2902 ft | 180 kts | 126° |
| 2026-04-21 00:21 | -34.46756 | -58.56268 | 2671 ft | 176 kts | 126° |
| 2026-04-21 00:21 | -34.47575 | -58.55190 | 2498 ft | 171 kts | 130° |
| 2026-04-21 00:21 | -34.48619 | -58.54480 | 2456 ft | 178 kts | 142° |
| 2026-04-21 00:22 | -34.49396 | -58.53407 | 2217 ft | 164 kts | 114° |
| 2026-04-21 00:22 | -34.49975 | -58.52213 | 1931 ft | 166 kts | 118° |
| 2026-04-21 00:22 | -34.50655 | -58.51090 | 1730 ft | 162 kts | 118° |
| 2026-04-21 00:22 | -34.51257 | -58.49984 | 1542 ft | 153 kts | 116° |
| 2026-04-21 00:23 | -34.51831 | -58.48928 | 1370 ft | 146 kts | 118° |
| 2026-04-21 00:23 | -34.52377 | -58.47967 | 1133 ft | 131 kts | 118° |
| 2026-04-21 00:23 | -34.52703 | -58.47380 | 1028 ft | 121 kts | 118° |
| 2026-04-21 00:23 | -34.53149 | -58.46569 | 850 ft | 114 kts | 118° |
| 2026-04-21 00:24 | -34.53718 | -58.45536 | 641 ft | 106 kts | 120° |
| 2026-04-21 00:24 | -34.54113 | -58.44807 | 516 ft | 103 kts | 123° |
| 2026-04-21 00:24 | -34.54515 | -58.44096 | 392 ft | 103 kts | 124° |
| 2026-04-21 00:24 | -34.54917 | -58.43378 | 239 ft | 102 kts | 123° |
| 2026-04-21 00:25 | -34.55177 | -58.42914 | 146 ft | 99 kts | 123° |
| 2026-04-21 00:25 | -34.55545 | -58.42253 | 39 ft | 83 kts | 123° |
| 2026-04-21 00:25 | -34.55801 | -58.41796 | 25 ft | 54 kts | 123° |
| 2026-04-21 00:25 | -34.55970 | -58.41491 | 26 ft | 33 kts | 123° |
| 2026-04-21 00:26 | -34.55987 | -58.41335 | 26 ft | 16 kts | 39° |
| 2026-04-21 00:26 | -34.55888 | -58.41291 | 29 ft | 13 kts | 26° |
| 2026-04-21 00:26 | -34.55811 | -58.41328 | 27 ft | 15 kts | 306° |
| 2026-04-21 00:26 | -34.55758 | -58.41426 | 28 ft | 12 kts | 300° |
| 2026-04-21 00:27 | -34.55729 | -58.41489 | 28 ft | 5 kts | 307° |
| 2026-04-21 00:27 | -34.55700 | -58.41487 | 27 ft | 2 kts | 12° |
| 2026-04-21 00:27 | -34.55688 | -58.41484 | 28 ft | 1 kts | 13° |
| 2026-04-21 00:27 | -34.55686 | -58.41483 | 27 ft | 0 kts | 13° |